Terminal Aerodrome Forecast
Issued by NWS

Home | Current Version | Previous Version | Text Only | Print | Product List | Glossary On
Versions: 1 2 3 4 5 6 7 8 9 10 11 12 13 14 15
000
FTUS44 KLIX 212000 AAB
TAFMSY
TAF AMD
KMSY 212052Z 2121/2218 19005KT P6SM VCTS SCT035CB
      TEMPO 2121/2122 VRB10KT 2SM TSRA BKN035CB
     FM220000 22003KT P6SM SCT120
     FM221300 35004KT P6SM SCT250=

USA.gov is the U.S. government's official web portal to all federal, state and local government web resources and services.